メインページ
METAR-TAF:

METAR-TAF

空港 :

ニューデリー, インド

インディラ・ガンディー国際空港

緯度: 28-34N, 経度: 077-07E, 海抜: 220m

現時点の気象観測

当レポートは37分前の12:30(UTC)に作成
西の風 4kt
気温 21°C
湿度 35%
気圧 1014 hPa
視程: 3200m
煙霧

METAR: VIDP 241230Z 28004KT 3200 HZ NSC 21/05 Q1014 BECMG 3000 HZ

時間: 18:37 (13:07 UTC)

予報

当レポートは2時間7分前の11:00(UTC)に作成
予報は24日の 12時(UTC)から 25日の 18時(UTC)まで有効
西/北西の風 6kt
視程: 3500m
煙霧
24日の 19時(UTC)から 24日の 21時(UTC)まで徐々に
西の風 4kt
視程: 2000m
煙, 煙霧
25日の 00時(UTC)から 25日の 02時(UTC)まで徐々に
視程: 1500m
煙, 靄
25日の 08時(UTC)から 25日の 10時(UTC)まで徐々に
西/北西の風 8kt
視程: 3500m
煙霧
25日の 15時(UTC)から 25日の 17時(UTC)まで徐々に
西の風 5kt
視程: 2500m
煙, 煙霧

TAF: VIDP 241100Z 2412/2518 29006KT 3500 HZ NSC BECMG 2419/2421 26004KT 2000 FU HZ BECMG 2500/2502 1500 FU BR BECMG 2508/2510 29008KT 3500 HZ BECMG 2515/2517 26005KT 2500 FU HZ

4,000以上の空港の気象観測と天気予報(METAR報とTAF報)

利用可能な観測所は地図上に黄色い丸と赤い丸で示す。

丸の上にカーソルを重ねると観測所名を参照できる。

次にクリックすると気象観測と天気予報を参照できる。

マップの切り替え:黒色「×」印の緑ボタンをクリックして拡大、「-」印の緑ボタンをクリックして縮小、緑色の三角印をクリックして隣りの地図に切り替え


METAR-TAF: